Time;durP1;ratioP1;P1;durP2;ratioP2;P2;SDS_P1;SDS_P2;PMS_P1;PMS_P2;Temp;Humidity;BMP_temperature;BMP_pressure;BME280_temperature;BME280_humidity;BME280_pressure;Samples;Min_cycle;Max_cycle;Signal;HPM_P1;HPM_P2
2022/08/04 00:01:39;;;;;;;;;;;;;;;;;;5050169;28;1071;-77
2022/08/04 00:04:08;;;;;;;;;;;;;;;;;;5050268;28;1326;-76
2022/08/04 00:06:38;;;;;;;;;;;;;;;;;;5051441;28;1047;-77
2022/08/04 00:09:06;;;;;;;;;;;;;;;;;;5053908;28;881;-77
2022/08/04 00:11:34;;;;;;;;;;;;;;;;;;5053799;28;1968;-77
2022/08/04 00:14:01;;;;;;;;;;;;;;;;;;5054044;28;1293;-76
2022/08/04 00:16:28;;;;;;;;;;;;;;;;;;5053701;28;1115;-77
2022/08/04 00:18:55;;;;;;;;;;;;;;;;;;5053960;28;826;-77
2022/08/04 00:21:22;;;;;;;;;;;;;;;;;;5035740;28;2093;-77
2022/08/04 00:23:48;;;;;;;;;;;;;;;;;;5053716;28;1400;-77
2022/08/04 00:26:14;;;;;;;;;;;;;;;;;;5053843;28;991;-78
2022/08/04 00:28:42;;;;;;;;;;;;;;;;;;5053798;28;1091;-78
2022/08/04 00:31:08;;;;;;;;;;;;;;;;;;5053599;28;1071;-77
2022/08/04 00:33:34;;;;;;;;;;;;;;;;;;5053023;28;1918;-78
2022/08/04 00:36:01;;;;;;;;;;;;;;;;;;5035570;28;1349;-78
2022/08/04 00:38:27;;;;;;;;;;;;;;;;;;5053752;28;1005;-77
2022/08/04 00:40:55;;;;;;;;;;;;;;;;;;5053384;28;917;-78
2022/08/04 00:43:26;;;;;;;;;;;;;;;;;;5053010;28;1417;-76
2022/08/04 00:45:59;;;;;;;;;;;;;;;;;;5053483;28;858;-77
2022/08/04 00:48:28;;;;;;;;;;;;;;;;;;5053444;28;897;-77
2022/08/04 00:50:56;;;;;;;;;;;;;;;;;;5053215;28;1107;-77
2022/08/04 00:53:24;;;;;;;;;;;;;;;;;;5052426;28;1973;-77
2022/08/04 00:56:02;;;;;;;;;;;;;;;;;;5053231;28;806;-77
2022/08/04 00:58:29;;;;;;;;;;;;;;;;;;5053156;28;1079;-77
2022/08/04 01:01:00;;;;;;;;;;;;;;;;;;5052977;28;933;-77
2022/08/04 01:03:32;;;;;;;;;;;;;;;;;;5052821;28;1314;-76
2022/08/04 01:06:06;;;;;;;;;;;;;;;;;;5053030;28;700;-77
2022/08/04 01:08:37;;;;;;;;;;;;;;;;;;5034991;28;1317;-77
2022/08/04 01:11:04;;;;;;;;;;;;;;;;;;5052434;28;1101;-77
2022/08/04 01:13:48;;;;;;;;;;;;;;;;;;5034664;28;1903;-76
2022/08/04 01:16:17;;;;;;;;;;;;;;;;;;5052757;28;1076;-77
2022/08/04 01:18:46;;;;;;;;;;;;;;;;;;5052297;28;794;-77
2022/08/04 01:21:26;;;;;;;;;;;;;;;;;;5052728;28;1122;-78
2022/08/04 01:24:00;;;;;;;;;;;;;;;;;;5052817;28;1277;-78
2022/08/04 01:26:41;;;;;;;;;;;;;;;;;;5034901;28;937;-77
2022/08/04 01:29:09;;;;;;;;;;;;;;;;;;5052307;28;1432;-77
2022/08/04 01:31:50;;;;;;;;;;;;;;;;;;5052243;28;1554;-77
2022/08/04 01:34:16;;;;;;;;;;;;;;;;;;5052382;28;1352;-77
2022/08/04 01:36:45;;;;;;;;;;;;;;;;;;5052406;28;1068;-77
2022/08/04 01:41:52;;;;;;;;;;;;;;;;;;5050937;28;1090;-77
2022/08/04 01:44:19;;;;;;;;;;;;;;;;;;5034430;28;1494;-78
2022/08/04 01:46:46;;;;;;;;;;;;;;;;;;5052250;28;1013;-77
2022/08/04 01:49:12;;;;;;;;;;;;;;;;;;5052190;28;841;-76
2022/08/04 01:51:38;;;;;;;;;;;;;;;;;;5034062;28;1345;-77
2022/08/04 01:54:04;;;;;;;;;;;;;;;;;;5051670;28;1906;-75
2022/08/04 01:56:30;;;;;;;;;;;;;;;;;;5052096;28;828;-77
2022/08/04 01:58:57;;;;;;;;;;;;;;;;;;5051818;28;1118;-77
2022/08/04 02:01:25;;;;;;;;;;;;;;;;;;5051770;28;1059;-76
2022/08/04 02:03:51;;;;;;;;;;;;;;;;;;5051815;28;1396;-76
2022/08/04 02:06:18;;;;;;;;;;;;;;;;;;5051602;28;798;-77
2022/08/04 02:08:46;;;;;;;;;;;;;;;;;;5033927;28;1131;-77
2022/08/04 02:11:14;;;;;;;;;;;;;;;;;;5051726;28;1071;-77
2022/08/04 02:13:43;;;;;;;;;;;;;;;;;;5051614;28;1906;-77
2022/08/04 02:16:11;;;;;;;;;;;;;;;;;;5033594;28;1219;-77
2022/08/04 02:18:39;;;;;;;;;;;;;;;;;;5051726;28;1059;-77
2022/08/04 02:21:05;;;;;;;;;;;;;;;;;;5051315;28;870;-77
2022/08/04 02:23:35;;;;;;;;;;;;;;;;;;5051174;28;1440;-77
2022/08/04 02:26:02;;;;;;;;;;;;;;;;;;5051461;28;1063;-77
2022/08/04 02:28:30;;;;;;;;;;;;;;;;;;5034131;28;1310;-77
2022/08/04 02:30:58;;;;;;;;;;;;;;;;;;5033064;28;933;-77
2022/08/04 02:33:26;;;;;;;;;;;;;;;;;;5033864;28;1910;-77
2022/08/04 02:35:56;;;;;;;;;;;;;;;;;;5051403;28;850;-77
2022/08/04 02:38:24;;;;;;;;;;;;;;;;;;5051270;28;1009;-79
2022/08/04 02:40:51;;;;;;;;;;;;;;;;;;5051253;28;1091;-78
2022/08/04 02:43:17;;;;;;;;;;;;;;;;;;5050493;28;1317;-77
2022/08/04 02:45:43;;;;;;;;;;;;;;;;;;5051409;28;921;-76
2022/08/04 02:48:10;;;;;;;;;;;;;;;;;;5051292;28;1126;-78
2022/08/04 02:50:36;;;;;;;;;;;;;;;;;;5051412;28;1056;-77
2022/08/04 02:53:04;;;;;;;;;;;;;;;;;;5050488;28;1906;-78
2022/08/04 02:55:30;;;;;;;;;;;;;;;;;;5051118;28;1127;-77
2022/08/04 02:57:57;;;;;;;;;;;;;;;;;;5051270;28;1409;-78
2022/08/04 03:00:23;;;;;;;;;;;;;;;;;;5050996;28;846;-78
2022/08/04 03:02:52;;;;;;;;;;;;;;;;;;5050675;28;1392;-78
2022/08/04 03:05:18;;;;;;;;;;;;;;;;;;5065589;22;4241;-71
2022/08/04 03:07:53;;;;;;;;;;;;;;;;;;5066705;28;1351;-71
2022/08/04 03:10:30;;;;;;;;;;;;;;;;;;5079926;28;1302;-72
2022/08/04 03:13:15;;;;;;;;;;;;;;;;;;5079878;28;1981;-72
2022/08/04 03:15:47;;;;;;;;;;;;;;;;;;5082716;28;1394;-71
2022/08/04 03:18:37;;;;;;;;;;;;;;;;;;5070204;28;1355;-71
2022/08/04 03:21:24;;;;;;;;;;;;;;;;;;5070782;28;878;-71
2022/08/04 03:24:23;;;;;;;;;;;;;;;;;;5067192;28;1114;-73
2022/08/04 03:27:02;;;;;;;;;;;;;;;;;;5028441;28;1331;-71
2022/08/04 03:29:35;;;;;;;;;;;;;;;;;;5028217;28;1118;-71
2022/08/04 03:32:20;;;;;;;;;;;;;;;;;;5031883;28;1503;-71
2022/08/04 03:34:52;;;;;;;;;;;;;;;;;;5070630;28;1071;-71
2022/08/04 03:37:23;;;;;;;;;;;;;;;;;;5070047;28;1416;-71
2022/08/04 03:40:14;;;;;;;;;;;;;;;;;;5070685;28;900;-71
2022/08/04 03:42:57;;;;;;;;;;;;;;;;;;5055243;28;953;-71
2022/08/04 03:45:34;;;;;;;;;;;;;;;;;;5073918;28;1475;-71
2022/08/04 03:48:08;;;;;;;;;;;;;;;;;;5074624;28;881;-72
2022/08/04 03:50:41;;;;;;;;;;;;;;;;;;5073598;28;1197;-72
2022/08/04 03:53:22;;;;;;;;;;;;;;;;;;5073826;28;1914;-72
2022/08/04 03:55:54;;;;;;;;;;;;;;;;;;5073873;28;1442;-72
2022/08/04 03:58:30;;;;;;;;;;;;;;;;;;5074164;28;1071;-72
2022/08/04 04:00:58;;;;;;;;;;;;;;;;;;5074249;28;1126;-72
2022/08/04 04:03:40;;;;;;;;;;;;;;;;;;5073886;28;964;-72
2022/08/04 04:06:26;;;;;;;;;;;;;;;;;;5073943;28;1515;-72
2022/08/04 04:08:59;;;;;;;;;;;;;;;;;;5074257;28;1063;-73
2022/08/04 04:11:44;;;;;;;;;;;;;;;;;;5073274;28;1071;-73
2022/08/04 04:14:24;;;;;;;;;;;;;;;;;;5073874;28;1918;-73
2022/08/04 04:16:57;;;;;;;;;;;;;;;;;;5073912;28;1324;-73
2022/08/04 04:19:29;;;;;;;;;;;;;;;;;;5073768;28;1092;-73
2022/08/04 04:22:02;;;;;;;;;;;;;;;;;;5073469;28;1050;-73
2022/08/04 04:24:40;;;;;;;;;;;;;;;;;;5073736;28;1434;-73
2022/08/04 04:27:09;;;;;;;;;;;;;;;;;;5073465;28;1340;-73
2022/08/04 04:29:50;;;;;;;;;;;;;;;;;;5073434;28;1067;-73
2022/08/04 04:32:21;;;;;;;;;;;;;;;;;;5069935;28;1201;-73
2022/08/04 04:34:50;;;;;;;;;;;;;;;;;;5073754;28;1926;-73
2022/08/04 04:37:19;;;;;;;;;;;;;;;;;;5073593;28;1351;-73
2022/08/04 04:39:50;;;;;;;;;;;;;;;;;;5073420;28;1107;-73
2022/08/04 04:42:22;;;;;;;;;;;;;;;;;;5055215;28;948;-73
2022/08/04 04:44:56;;;;;;;;;;;;;;;;;;5055131;28;1276;-73
2022/08/04 04:47:29;;;;;;;;;;;;;;;;;;5073271;28;1435;-73
2022/08/04 04:49:57;;;;;;;;;;;;;;;;;;5073275;28;1055;-73
2022/08/04 04:52:24;;;;;;;;;;;;;;;;;;5072347;28;1067;-73
2022/08/04 04:54:53;;;;;;;;;;;;;;;;;;5072609;28;1967;-73
2022/08/04 04:57:20;;;;;;;;;;;;;;;;;;5072990;28;1306;-73
2022/08/04 04:59:47;;;;;;;;;;;;;;;;;;5073263;28;885;-73
2022/08/04 05:02:46;;;;;;;;;;;;;;;;;;5072400;28;1079;-73
2022/08/04 05:05:22;;;;;;;;;;;;;;;;;;5072917;28;1294;-73
2022/08/04 05:08:09;;;;;;;;;;;;;;;;;;5072520;28;1128;-73
2022/08/04 05:10:39;;;;;;;;;;;;;;;;;;5053348;28;1303;-73
2022/08/04 05:13:10;;;;;;;;;;;;;;;;;;5071358;28;1914;-73
2022/08/04 05:15:37;;;;;;;;;;;;;;;;;;5081252;28;1393;-73
2022/08/04 05:18:04;;;;;;;;;;;;;;;;;;5074507;28;1327;-73
2022/08/04 05:20:33;;;;;;;;;;;;;;;;;;5071653;28;1326;-73
2022/08/04 05:23:00;;;;;;;;;;;;;;;;;;5071830;28;1271;-73
2022/08/04 05:25:27;;;;;;;;;;;;;;;;;;5071940;28;1410;-73
2022/08/04 05:27:56;;;;;;;;;;;;;;;;;;5072073;28;1255;-73
2022/08/04 05:30:22;;;;;;;;;;;;;;;;;;5071966;28;1286;-73
2022/08/04 05:32:50;;;;;;;;;;;;;;;;;;5071825;28;1270;-73
2022/08/04 05:35:19;;;;;;;;;;;;;;;;;;5056872;28;1977;-73
2022/08/04 05:37:47;;;;;;;;;;;;;;;;;;5073934;28;1331;-74
2022/08/04 05:40:13;;;;;;;;;;;;;;;;;;5069306;28;1310;-74
2022/08/04 05:42:40;;;;;;;;;;;;;;;;;;5071552;28;1524;-74
2022/08/04 05:45:07;;;;;;;;;;;;;;;;;;5072111;28;1321;-74
2022/08/04 05:47:33;;;;;;;;;;;;;;;;;;5072016;28;1109;-74
2022/08/04 05:49:59;;;;;;;;;;;;;;;;;;5072267;28;1064;-74
2022/08/04 05:52:25;;;;;;;;;;;;;;;;;;5071674;28;940;-74
2022/08/04 05:54:53;;;;;;;;;;;;;;;;;;5071600;28;1979;-74
2022/08/04 05:57:19;;;;;;;;;;;;;;;;;;5071527;28;1369;-74
2022/08/04 05:59:46;;;;;;;;;;;;;;;;;;5071829;28;889;-74
2022/08/04 06:02:13;;;;;;;;;;;;;;;;;;5071560;28;1130;-73
2022/08/04 06:04:40;;;;;;;;;;;;;;;;;;5071588;28;1059;-74
2022/08/04 06:07:06;;;;;;;;;;;;;;;;;;5071786;28;1379;-74
2022/08/04 06:09:32;;;;;;;;;;;;;;;;;;5071614;28;1135;-74
2022/08/04 06:12:01;;;;;;;;;;;;;;;;;;5053404;28;1151;-74
2022/08/04 06:14:27;;;;;;;;;;;;;;;;;;5071457;28;1973;-74
2022/08/04 06:16:54;;;;;;;;;;;;;;;;;;5053577;28;1462;-74
2022/08/04 06:19:20;;;;;;;;;;;;;;;;;;5054324;28;1271;-74
2022/08/04 06:21:47;;;;;;;;;;;;;;;;;;5071730;28;964;-74
2022/08/04 06:24:16;;;;;;;;;;;;;;;;;;5071372;28;1052;-75
2022/08/04 06:26:42;;;;;;;;;;;;;;;;;;5071446;28;1348;-75
2022/08/04 06:29:15;;;;;;;;;;;;;;;;;;5071436;28;1119;-75
2022/08/04 06:31:46;;;;;;;;;;;;;;;;;;5070998;28;850;-75
2022/08/04 06:34:12;;;;;;;;;;;;;;;;;;5071272;28;1919;-74
2022/08/04 06:36:39;;;;;;;;;;;;;;;;;;5071032;28;1297;-75
2022/08/04 06:39:06;;;;;;;;;;;;;;;;;;5071172;28;956;-75
2022/08/04 06:41:32;;;;;;;;;;;;;;;;;;5070754;28;695;-75
2022/08/04 06:43:59;;;;;;;;;;;;;;;;;;5071156;28;925;-75
2022/08/04 06:46:27;;;;;;;;;;;;;;;;;;5070992;28;1321;-75
2022/08/04 06:48:53;;;;;;;;;;;;;;;;;;5071050;28;1114;-75
2022/08/04 06:51:21;;;;;;;;;;;;;;;;;;5067625;28;1068;-75
2022/08/04 06:53:47;;;;;;;;;;;;;;;;;;5070603;28;1890;-75
2022/08/04 06:56:13;;;;;;;;;;;;;;;;;;5069101;28;1430;-75
2022/08/04 06:58:40;;;;;;;;;;;;;;;;;;5070219;28;1130;-74
2022/08/04 07:01:06;;;;;;;;;;;;;;;;;;5050255;28;850;-75
2022/08/04 07:03:33;;;;;;;;;;;;;;;;;;5050323;28;1027;-75
2022/08/04 07:05:59;;;;;;;;;;;;;;;;;;5050415;28;1396;-75
2022/08/04 07:08:26;;;;;;;;;;;;;;;;;;5050431;28;993;-75
2022/08/04 07:10:53;;;;;;;;;;;;;;;;;;5050250;28;1127;-75
2022/08/04 07:13:19;;;;;;;;;;;;;;;;;;5049915;28;1056;-75
2022/08/04 07:15:45;;;;;;;;;;;;;;;;;;5033204;28;1922;-75
2022/08/04 07:18:12;;;;;;;;;;;;;;;;;;5039205;28;1708;-75
2022/08/04 07:20:41;;;;;;;;;;;;;;;;;;5056597;28;1017;-75
2022/08/04 07:23:07;;;;;;;;;;;;;;;;;;5056753;28;1111;-76
2022/08/04 07:25:33;;;;;;;;;;;;;;;;;;5038899;28;1334;-74
2022/08/04 07:28:00;;;;;;;;;;;;;;;;;;5056960;28;865;-76
2022/08/04 07:30:26;;;;;;;;;;;;;;;;;;5056610;28;1063;-76
2022/08/04 07:32:52;;;;;;;;;;;;;;;;;;5056388;28;885;-76
2022/08/04 07:35:20;;;;;;;;;;;;;;;;;;5056706;28;1914;-75
2022/08/04 07:37:48;;;;;;;;;;;;;;;;;;5038877;28;937;-74
2022/08/04 07:40:14;;;;;;;;;;;;;;;;;;5056761;28;1059;-74
2022/08/04 07:42:40;;;;;;;;;;;;;;;;;;5056330;28;1044;-75
2022/08/04 07:45:07;;;;;;;;;;;;;;;;;;5038604;28;1325;-75
2022/08/04 07:47:33;;;;;;;;;;;;;;;;;;5056735;28;790;-74
2022/08/04 07:49:59;;;;;;;;;;;;;;;;;;5056341;28;873;-74
2022/08/04 07:52:26;;;;;;;;;;;;;;;;;;5038173;28;1108;-74
2022/08/04 07:54:53;;;;;;;;;;;;;;;;;;5056580;28;1970;-74
2022/08/04 07:57:20;;;;;;;;;;;;;;;;;;5056514;28;1282;-74
2022/08/04 07:59:46;;;;;;;;;;;;;;;;;;5057559;28;1452;-74
2022/08/04 08:02:13;;;;;;;;;;;;;;;;;;5076043;28;1539;-74
2022/08/04 08:04:39;;;;;;;;;;;;;;;;;;5076927;28;932;-74
2022/08/04 08:07:05;;;;;;;;;;;;;;;;;;5076263;28;1357;-74
2022/08/04 08:09:32;;;;;;;;;;;;;;;;;;5076556;28;993;-74
2022/08/04 08:12:01;;;;;;;;;;;;;;;;;;5075956;28;1118;-74
2022/08/04 08:14:27;;;;;;;;;;;;;;;;;;5076363;28;1918;-74
2022/08/04 08:16:53;;;;;;;;;;;;;;;;;;5076750;28;1298;-74
2022/08/04 08:19:20;;;;;;;;;;;;;;;;;;5076610;28;1059;-74
2022/08/04 08:21:46;;;;;;;;;;;;;;;;;;5076202;28;1067;-74
2022/08/04 08:24:12;;;;;;;;;;;;;;;;;;5076487;28;1130;-74
2022/08/04 08:26:39;;;;;;;;;;;;;;;;;;5076049;28;1298;-74
2022/08/04 08:29:06;;;;;;;;;;;;;;;;;;5073447;28;1072;-74
2022/08/04 08:31:32;;;;;;;;;;;;;;;;;;5072655;28;806;-75
2022/08/04 08:33:59;;;;;;;;;;;;;;;;;;5072940;28;1973;-74
2022/08/04 08:36:26;;;;;;;;;;;;;;;;;;5073142;28;1330;-74
2022/08/04 08:38:53;;;;;;;;;;;;;;;;;;5073225;28;824;-75
2022/08/04 08:41:23;;;;;;;;;;;;;;;;;;5054637;28;1263;-75
2022/08/04 08:43:54;;;;;;;;;;;;;;;;;;5073020;28;894;-75
2022/08/04 08:46:29;;;;;;;;;;;;;;;;;;5054812;28;1309;-75
2022/08/04 08:49:00;;;;;;;;;;;;;;;;;;5049485;28;1052;-75
2022/08/04 08:51:47;;;;;;;;;;;;;;;;;;5052215;28;1333;-75
2022/08/04 08:54:37;;;;;;;;;;;;;;;;;;5049042;28;1906;-75
2022/08/04 08:57:10;;;;;;;;;;;;;;;;;;5042207;28;1314;-74
2022/08/04 08:59:39;;;;;;;;;;;;;;;;;;5035295;28;1012;-75
2022/08/04 09:02:24;;;;;;;;;;;;;;;;;;5052470;28;925;-75
2022/08/04 09:04:58;;;;;;;;;;;;;;;;;;5052604;28;1068;-75
2022/08/04 09:07:32;;;;;;;;;;;;;;;;;;5051145;28;1417;-74
2022/08/04 09:10:03;;;;;;;;;;;;;;;;;;5052554;28;826;-75
2022/08/04 09:12:30;;;;;;;;;;;;;;;;;;5051870;28;1254;-75
2022/08/04 09:15:01;;;;;;;;;;;;;;;;;;5052365;28;1910;-75
2022/08/04 09:17:29;;;;;;;;;;;;;;;;;;5052315;28;1079;-75
2022/08/04 09:19:57;;;;;;;;;;;;;;;;;;5053545;28;1111;-77
2022/08/04 09:22:28;;;;;;;;;;;;;;;;;;5052024;28;869;-77
2022/08/04 09:24:57;;;;;;;;;;;;;;;;;;5051986;28;1143;-76
2022/08/04 09:27:24;;;;;;;;;;;;;;;;;;5052035;28;1278;-76
2022/08/04 09:29:52;;;;;;;;;;;;;;;;;;5052119;28;890;-76
2022/08/04 09:32:21;;;;;;;;;;;;;;;;;;5051849;28;1082;-77
2022/08/04 09:34:51;;;;;;;;;;;;;;;;;;5052087;28;1961;-77
2022/08/04 09:37:21;;;;;;;;;;;;;;;;;;5033893;28;1399;-77
2022/08/04 09:39:49;;;;;;;;;;;;;;;;;;5051315;28;869;-77
2022/08/04 09:42:18;;;;;;;;;;;;;;;;;;5049782;28;1414;-77
2022/08/04 09:44:47;;;;;;;;;;;;;;;;;;5051940;28;1067;-77
2022/08/04 09:47:14;;;;;;;;;;;;;;;;;;5051729;28;1297;-78
2022/08/04 09:49:41;;;;;;;;;;;;;;;;;;5051934;28;1072;-77
2022/08/04 09:52:09;;;;;;;;;;;;;;;;;;5033449;28;1367;-77
2022/08/04 09:54:41;;;;;;;;;;;;;;;;;;5050089;28;1973;-78
2022/08/04 09:57:13;;;;;;;;;;;;;;;;;;5051635;28;1415;-76
2022/08/04 09:59:41;;;;;;;;;;;;;;;;;;5051139;28;1131;-77
2022/08/04 10:02:07;;;;;;;;;;;;;;;;;;5051305;28;1075;-76
2022/08/04 10:04:35;;;;;;;;;;;;;;;;;;5051372;28;1071;-78
2022/08/04 10:07:16;;;;;;;;;;;;;;;;;;5051207;28;1347;-78
2022/08/04 10:09:43;;;;;;;;;;;;;;;;;;5056159;28;1484;-77
2022/08/04 10:12:21;;;;;;;;;;;;;;;;;;5052910;28;1156;-78
2022/08/04 10:14:49;;;;;;;;;;;;;;;;;;5053775;28;1973;-79
2022/08/04 10:17:20;;;;;;;;;;;;;;;;;;5054225;28;1400;-77
2022/08/04 10:19:46;;;;;;;;;;;;;;;;;;5053848;28;901;-79
2022/08/04 10:22:15;;;;;;;;;;;;;;;;;;5070837;28;1072;-77
2022/08/04 10:24:51;;;;;;;;;;;;;;;;;;5070976;28;1055;-77
2022/08/04 10:27:22;;;;;;;;;;;;;;;;;;5071075;28;1427;-77
2022/08/04 10:29:48;;;;;;;;;;;;;;;;;;5071512;28;1160;-77
2022/08/04 10:32:18;;;;;;;;;;;;;;;;;;5070649;28;1068;-77
2022/08/04 10:34:48;;;;;;;;;;;;;;;;;;5052870;28;1979;-77
2022/08/04 10:37:18;;;;;;;;;;;;;;;;;;5070985;28;1506;-80
2022/08/04 10:40:35;;;;;;;;;;;;;;;;;;5071036;28;1593;-78
2022/08/04 10:42:35;;;;;;;;;;;;;;;;;;5070871;28;1035;-78
2022/08/04 10:45:05;;;;;;;;;;;;;;;;;;5052820;28;1348;-79
2022/08/04 10:47:32;;;;;;;;;;;;;;;;;;5070668;28;826;-76
2022/08/04 10:49:59;;;;;;;;;;;;;;;;;;5070896;28;1126;-78
2022/08/04 10:52:28;;;;;;;;;;;;;;;;;;5069273;28;1064;-78
2022/08/04 10:54:56;;;;;;;;;;;;;;;;;;5071425;28;1922;-79
2022/08/04 10:57:23;;;;;;;;;;;;;;;;;;5071563;28;1317;-78
2022/08/04 10:59:53;;;;;;;;;;;;;;;;;;5071870;28;948;-78
2022/08/04 11:02:22;;;;;;;;;;;;;;;;;;5071133;28;1080;-79
2022/08/04 11:04:49;;;;;;;;;;;;;;;;;;5071439;28;957;-78
2022/08/04 11:07:16;;;;;;;;;;;;;;;;;;5070990;28;1420;-78
2022/08/04 11:09:42;;;;;;;;;;;;;;;;;;5070846;28;924;-77
2022/08/04 11:12:10;;;;;;;;;;;;;;;;;;5052886;28;1318;-78
2022/08/04 11:14:37;;;;;;;;;;;;;;;;;;5070879;28;869;-79
2022/08/04 11:17:05;;;;;;;;;;;;;;;;;;5071726;28;1922;-78
2022/08/04 11:19:32;;;;;;;;;;;;;;;;;;5072195;28;980;-78
2022/08/04 11:22:00;;;;;;;;;;;;;;;;;;5053582;28;1364;-77
2022/08/04 11:24:27;;;;;;;;;;;;;;;;;;5072376;28;1129;-77
2022/08/04 11:26:56;;;;;;;;;;;;;;;;;;5053490;28;1298;-78
2022/08/04 11:29:24;;;;;;;;;;;;;;;;;;5070431;28;1023;-76
2022/08/04 11:31:50;;;;;;;;;;;;;;;;;;5069711;28;964;-78
2022/08/04 11:34:19;;;;;;;;;;;;;;;;;;5070612;28;1055;-77
2022/08/04 11:36:46;;;;;;;;;;;;;;;;;;5053287;28;1918;-79
2022/08/04 11:39:12;;;;;;;;;;;;;;;;;;5070437;28;774;-79
2022/08/04 11:41:40;;;;;;;;;;;;;;;;;;5069976;28;1115;-79
2022/08/04 11:44:06;;;;;;;;;;;;;;;;;;5071033;28;945;-79
2022/08/04 11:46:35;;;;;;;;;;;;;;;;;;5070339;28;1323;-79
2022/08/04 11:49:03;;;;;;;;;;;;;;;;;;5071912;28;1072;-79
2022/08/04 11:51:30;;;;;;;;;;;;;;;;;;5069090;28;1091;-75
2022/08/04 11:53:58;;;;;;;;;;;;;;;;;;5072033;28;829;-78
2022/08/04 11:56:24;;;;;;;;;;;;;;;;;;5053737;28;1914;-78
2022/08/04 11:58:50;;;;;;;;;;;;;;;;;;5071029;28;1063;-79
2022/08/04 12:01:19;;;;;;;;;;;;;;;;;;5071269;28;1083;-79
2022/08/04 12:03:48;;;;;;;;;;;;;;;;;;5057431;28;1551;-79
2022/08/04 12:06:15;;;;;;;;;;;;;;;;;;5075245;28;1364;-79
2022/08/04 12:08:47;;;;;;;;;;;;;;;;;;5076661;28;901;-79
2022/08/04 12:11:16;;;;;;;;;;;;;;;;;;5076008;28;1063;-79
2022/08/04 12:13:43;;;;;;;;;;;;;;;;;;5075485;28;1063;-80
2022/08/04 12:16:10;;;;;;;;;;;;;;;;;;5075908;28;1918;-79
2022/08/04 12:18:39;;;;;;;;;;;;;;;;;;5074982;28;1130;-80
2022/08/04 12:21:06;;;;;;;;;;;;;;;;;;5081145;28;1246;-83
2022/08/04 12:23:33;;;;;;;;;;;;;;;;;;5065469;28;1143;-80
2022/08/04 12:26:02;;;;;;;;;;;;;;;;;;5078117;28;1321;-82
2022/08/04 12:28:29;;;;;;;;;;;;;;;;;;5055698;28;1068;-78
2022/08/04 12:30:57;;;;;;;;;;;;;;;;;;5073572;28;1044;-78
2022/08/04 12:33:24;;;;;;;;;;;;;;;;;;5074103;28;1059;-78
2022/08/04 12:35:52;;;;;;;;;;;;;;;;;;5073514;28;1910;-79
2022/08/04 12:38:18;;;;;;;;;;;;;;;;;;5066370;28;1052;-79
2022/08/04 12:40:45;;;;;;;;;;;;;;;;;;5036409;28;1487;-78
2022/08/04 12:43:15;;;;;;;;;;;;;;;;;;5056987;28;893;-79
2022/08/04 12:45:42;;;;;;;;;;;;;;;;;;5053349;28;1314;-77
2022/08/04 12:48:08;;;;;;;;;;;;;;;;;;5053326;28;1107;-78
2022/08/04 12:50:35;;;;;;;;;;;;;;;;;;5053923;28;1028;-79
2022/08/04 12:53:01;;;;;;;;;;;;;;;;;;5053266;28;1091;-79
2022/08/04 12:55:28;;;;;;;;;;;;;;;;;;5053062;28;1906;-79
2022/08/04 12:57:55;;;;;;;;;;;;;;;;;;5054457;28;804;-78
2022/08/04 13:00:30;;;;;;;;;;;;;;;;;;5067749;28;1339;-79
2022/08/04 13:02:59;;;;;;;;;;;;;;;;;;5071919;28;1321;-77
2022/08/04 13:05:25;;;;;;;;;;;;;;;;;;5071216;28;1297;-78
2022/08/04 13:07:51;;;;;;;;;;;;;;;;;;5054382;28;1295;-78
2022/08/04 13:10:17;;;;;;;;;;;;;;;;;;5070555;28;1069;-79
2022/08/04 13:12:44;;;;;;;;;;;;;;;;;;5056183;28;1277;-79
2022/08/04 13:15:11;;;;;;;;;;;;;;;;;;5094923;28;1349;-79
2022/08/04 13:17:47;;;;;;;;;;;;;;;;;;5078622;28;1906;-78
2022/08/04 13:20:13;;;;;;;;;;;;;;;;;;5074955;28;1051;-78
2022/08/04 13:22:39;;;;;;;;;;;;;;;;;;5055388;28;1282;-80
2022/08/04 13:25:06;;;;;;;;;;;;;;;;;;5074285;28;1412;-80
2022/08/04 13:27:32;;;;;;;;;;;;;;;;;;5074981;28;1131;-77
2022/08/04 13:29:58;;;;;;;;;;;;;;;;;;5075128;28;1118;-79
2022/08/04 13:32:24;;;;;;;;;;;;;;;;;;5075126;28;1039;-81
2022/08/04 13:34:52;;;;;;;;;;;;;;;;;;5091421;28;1101;-79
2022/08/04 13:37:19;;;;;;;;;;;;;;;;;;5056391;28;1922;-80
2022/08/04 13:39:45;;;;;;;;;;;;;;;;;;5073337;28;1079;-77
2022/08/04 13:42:12;;;;;;;;;;;;;;;;;;5072092;28;913;-79
2022/08/04 13:44:38;;;;;;;;;;;;;;;;;;5073226;28;1024;-79
2022/08/04 13:47:05;;;;;;;;;;;;;;;;;;5057003;28;1387;-78
2022/08/04 13:49:31;;;;;;;;;;;;;;;;;;5055639;28;1122;-80
2022/08/04 13:51:59;;;;;;;;;;;;;;;;;;5054649;28;1111;-78
2022/08/04 13:54:26;;;;;;;;;;;;;;;;;;5072897;28;854;-79
2022/08/04 13:56:54;;;;;;;;;;;;;;;;;;5072538;28;1979;-79
2022/08/04 13:59:20;;;;;;;;;;;;;;;;;;5073188;28;1112;-80
2022/08/04 14:01:55;;;;;;;;;;;;;;;;;;5072835;28;1107;-80
2022/08/04 14:04:21;;;;;;;;;;;;;;;;;;5073532;28;1519;-79
2022/08/04 14:06:49;;;;;;;;;;;;;;;;;;5072720;28;1456;-79
2022/08/04 14:09:18;;;;;;;;;;;;;;;;;;5054797;28;1239;-80
2022/08/04 14:11:45;;;;;;;;;;;;;;;;;;5054247;28;1251;-78
2022/08/04 14:14:15;;;;;;;;;;;;;;;;;;5053174;28;1249;-78
2022/08/04 14:16:54;;;;;;;;;;;;;;;;;;5067533;28;1973;-78
2022/08/04 14:19:20;;;;;;;;;;;;;;;;;;5087238;28;1052;-79
2022/08/04 14:21:48;;;;;;;;;;;;;;;;;;5071254;28;982;-78
2022/08/04 14:24:23;;;;;;;;;;;;;;;;;;5071837;28;925;-80
2022/08/04 14:26:49;;;;;;;;;;;;;;;;;;5071856;28;1321;-79
2022/08/04 14:29:16;;;;;;;;;;;;;;;;;;5071449;28;1118;-78
2022/08/04 14:31:42;;;;;;;;;;;;;;;;;;5071315;28;1079;-79
2022/08/04 14:34:09;;;;;;;;;;;;;;;;;;5071995;28;929;-79
2022/08/04 14:36:39;;;;;;;;;;;;;;;;;;5054184;28;1918;-79
2022/08/04 14:39:06;;;;;;;;;;;;;;;;;;5071248;28;925;-78
2022/08/04 14:41:43;;;;;;;;;;;;;;;;;;5071203;28;1135;-79
2022/08/04 14:44:09;;;;;;;;;;;;;;;;;;5071599;28;921;-80
2022/08/04 14:46:36;;;;;;;;;;;;;;;;;;5072555;28;1636;-79
2022/08/04 14:49:03;;;;;;;;;;;;;;;;;;5072886;28;869;-78
2022/08/04 14:51:33;;;;;;;;;;;;;;;;;;5071378;28;964;-79
2022/08/04 14:54:00;;;;;;;;;;;;;;;;;;5072264;28;1146;-79
2022/08/04 14:56:26;;;;;;;;;;;;;;;;;;5072376;28;1914;-78
2022/08/04 14:58:59;;;;;;;;;;;;;;;;;;5075371;28;682;-80
2022/08/04 15:01:26;;;;;;;;;;;;;;;;;;5055023;28;1096;-80
2022/08/04 15:03:52;;;;;;;;;;;;;;;;;;5089384;28;1285;-80
2022/08/04 15:06:18;;;;;;;;;;;;;;;;;;5074526;28;1458;-79
2022/08/04 15:08:44;;;;;;;;;;;;;;;;;;5083140;28;1392;-80
2022/08/04 15:11:10;;;;;;;;;;;;;;;;;;5074395;28;1283;-80
2022/08/04 15:13:37;;;;;;;;;;;;;;;;;;5073168;28;1278;-79
2022/08/04 15:16:04;;;;;;;;;;;;;;;;;;5072753;28;1467;-80
2022/08/04 15:18:31;;;;;;;;;;;;;;;;;;5073611;28;1081;-80
2022/08/04 15:20:57;;;;;;;;;;;;;;;;;;5074257;28;1781;-79
2022/08/04 15:23:23;;;;;;;;;;;;;;;;;;5056402;28;1372;-79
2022/08/04 15:25:51;;;;;;;;;;;;;;;;;;5078589;28;1404;-77
2022/08/04 15:28:18;;;;;;;;;;;;;;;;;;5061999;28;1352;-78
2022/08/04 15:30:44;;;;;;;;;;;;;;;;;;5074689;28;1155;-78
2022/08/04 15:33:12;;;;;;;;;;;;;;;;;;5072260;28;1224;-78
2022/08/04 15:35:38;;;;;;;;;;;;;;;;;;5080503;28;1388;-78
2022/08/04 15:38:06;;;;;;;;;;;;;;;;;;5057991;28;1979;-78
2022/08/04 15:40:36;;;;;;;;;;;;;;;;;;5076766;28;746;-78
2022/08/04 15:43:16;;;;;;;;;;;;;;;;;;5078021;28;1134;-78
2022/08/04 15:45:49;;;;;;;;;;;;;;;;;;5059515;28;1341;-78
2022/08/04 15:48:33;;;;;;;;;;;;;;;;;;5079137;28;1232;-78
2022/08/04 15:51:02;;;;;;;;;;;;;;;;;;5077354;28;886;-78
2022/08/04 15:53:29;;;;;;;;;;;;;;;;;;5078704;28;783;-78
2022/08/04 15:55:55;;;;;;;;;;;;;;;;;;5080352;28;1286;-78
2022/08/04 15:58:22;;;;;;;;;;;;;;;;;;5082393;28;1977;-78
2022/08/04 16:01:07;;;;;;;;;;;;;;;;;;5086985;28;866;-78
2022/08/04 16:03:40;;;;;;;;;;;;;;;;;;5068262;28;1052;-78
2022/08/04 16:06:36;;;;;;;;;;;;;;;;;;5084334;28;1365;-79
2022/08/04 16:09:03;;;;;;;;;;;;;;;;;;5075589;28;1720;-77
2022/08/04 16:11:41;;;;;;;;;;;;;;;;;;5078134;28;622;-78
2022/08/04 16:14:08;;;;;;;;;;;;;;;;;;5078318;28;1130;-77
2022/08/04 16:16:45;;;;;;;;;;;;;;;;;;5078855;28;1981;-78
2022/08/04 16:19:15;;;;;;;;;;;;;;;;;;5079882;28;1151;-78
2022/08/04 16:21:48;;;;;;;;;;;;;;;;;;5079900;28;973;-79
2022/08/04 16:24:18;;;;;;;;;;;;;;;;;;5080403;28;1063;-78
2022/08/04 16:26:45;;;;;;;;;;;;;;;;;;5080395;28;1407;-79
2022/08/04 16:29:32;;;;;;;;;;;;;;;;;;5079673;28;1056;-79
2022/08/04 16:32:15;;;;;;;;;;;;;;;;;;5062437;28;1325;-77
2022/08/04 16:34:42;;;;;;;;;;;;;;;;;;5081400;28;881;-78
2022/08/04 16:37:10;;;;;;;;;;;;;;;;;;5081052;28;1910;-78
2022/08/04 16:39:37;;;;;;;;;;;;;;;;;;5080888;28;1047;-78
2022/08/04 16:42:18;;;;;;;;;;;;;;;;;;5080211;28;1078;-78
2022/08/04 16:44:44;;;;;;;;;;;;;;;;;;5061227;28;1354;-79
2022/08/04 16:47:10;;;;;;;;;;;;;;;;;;5081944;28;1368;-78
2022/08/04 16:49:36;;;;;;;;;;;;;;;;;;5080615;28;927;-79
2022/08/04 16:52:04;;;;;;;;;;;;;;;;;;5063029;28;1156;-78
2022/08/04 16:54:32;;;;;;;;;;;;;;;;;;5081268;28;1126;-79
2022/08/04 16:56:58;;;;;;;;;;;;;;;;;;5081581;28;1918;-79
2022/08/04 16:59:24;;;;;;;;;;;;;;;;;;5082045;28;946;-78
2022/08/04 17:01:51;;;;;;;;;;;;;;;;;;5081829;28;1051;-79
2022/08/04 17:04:17;;;;;;;;;;;;;;;;;;5081432;28;1083;-79
2022/08/04 17:06:45;;;;;;;;;;;;;;;;;;5081819;28;1351;-79
2022/08/04 17:09:11;;;;;;;;;;;;;;;;;;5083793;28;797;-78
2022/08/04 17:11:39;;;;;;;;;;;;;;;;;;5075844;28;1146;-78
2022/08/04 17:14:05;;;;;;;;;;;;;;;;;;5075646;28;1071;-76
2022/08/04 17:16:32;;;;;;;;;;;;;;;;;;5076183;28;1309;-78
2022/08/04 17:18:59;;;;;;;;;;;;;;;;;;5081085;28;1985;-78
2022/08/04 17:21:26;;;;;;;;;;;;;;;;;;5081315;28;1205;-78
2022/08/04 17:23:52;;;;;;;;;;;;;;;;;;5080902;28;1499;-78